createdAt,value
2019-02-26T00:00:30.087Z,59.10
2019-02-26T00:03:02.158Z,59.16
2019-02-26T00:05:28.606Z,59.10
2019-02-26T00:07:57.704Z,58.94
2019-02-26T00:10:26.561Z,59.12
2019-02-26T00:12:52.763Z,59.00
2019-02-26T00:15:19.415Z,59.00
2019-02-26T00:17:48.372Z,59.25
2019-02-26T00:20:17.059Z,59.21
2019-02-26T00:22:43.199Z,58.58
2019-02-26T00:25:10.425Z,58.69
2019-02-26T00:27:38.355Z,58.65
2019-02-26T00:30:09.587Z,59.02
2019-02-26T00:32:38.207Z,58.83
2019-02-26T00:35:06.846Z,58.81
2019-02-26T00:37:33.535Z,58.80
2019-02-26T00:40:00.254Z,58.49
2019-02-26T00:42:28.674Z,58.16
2019-02-26T00:44:57.621Z,59.62
2019-02-26T00:47:25.007Z,59.35
2019-02-26T00:49:53.495Z,58.76
2019-02-26T00:52:20.356Z,59.11
2019-02-26T00:54:47.050Z,60.31
2019-02-26T00:57:13.954Z,60.15
2019-02-26T00:59:41.252Z,60.11
2019-02-26T01:02:09.295Z,60.22
2019-02-26T01:04:36.018Z,60.62
2019-02-26T01:07:03.822Z,60.74
2019-02-26T01:09:32.261Z,61.24
2019-02-26T01:12:00.231Z,61.23
2019-02-26T01:14:26.895Z,61.32
2019-02-26T01:16:53.575Z,61.52
2019-02-26T01:19:20.219Z,61.66
2019-02-26T01:21:46.947Z,61.54
2019-02-26T01:24:13.700Z,61.69
2019-02-26T01:26:42.547Z,61.28
2019-02-26T01:29:09.039Z,61.03
2019-02-26T01:31:35.766Z,61.34
2019-02-26T01:34:02.386Z,61.70
2019-02-26T01:36:30.894Z,61.27
2019-02-26T01:38:57.560Z,61.06
2019-02-26T01:41:25.011Z,61.25
2019-02-26T01:43:52.861Z,61.50
2019-02-26T01:46:19.562Z,61.35
2019-02-26T01:48:46.195Z,62.42
2019-02-26T01:51:12.824Z,62.16
2019-02-26T01:53:39.527Z,62.13
2019-02-26T01:56:06.171Z,61.85
2019-02-26T01:58:33.658Z,61.39
2019-02-26T02:01:00.737Z,62.15
2019-02-26T02:03:28.024Z,61.79
2019-02-26T02:05:55.836Z,61.61
2019-02-26T02:08:24.768Z,61.94
2019-02-26T02:10:53.604Z,61.83
2019-02-26T02:13:19.559Z,62.23
2019-02-26T02:15:46.577Z,61.88
2019-02-26T02:18:13.195Z,61.82
2019-02-26T02:20:39.792Z,61.46
2019-02-26T02:23:07.078Z,61.62
2019-02-26T02:25:36.166Z,62.20
2019-02-26T02:28:04.397Z,61.97
2019-02-26T02:30:32.605Z,62.08
2019-02-26T02:33:02.011Z,61.41
2019-02-26T02:35:28.191Z,61.88
2019-02-26T02:37:57.105Z,61.71
2019-02-26T02:40:23.552Z,61.65
2019-02-26T02:42:50.219Z,61.38
2019-02-26T02:45:20.454Z,61.75
2019-02-26T02:47:45.445Z,62.20
2019-02-26T02:50:15.070Z,62.16
2019-02-26T02:52:41.398Z,61.75
2019-02-26T02:55:10.537Z,61.94
2019-02-26T02:57:37.341Z,61.75
2019-02-26T03:00:09.878Z,62.16
2019-02-26T03:02:40.587Z,61.78
2019-02-26T03:05:06.764Z,61.64
2019-02-26T03:07:33.504Z,61.98
2019-02-26T03:10:06.104Z,61.49
2019-02-26T03:12:30.660Z,61.80
2019-02-26T03:14:59.837Z,62.00
2019-02-26T03:17:25.921Z,61.70
2019-02-26T03:19:52.622Z,61.41
2019-02-26T03:22:21.568Z,61.66
2019-02-26T03:24:48.424Z,61.71
2019-02-26T03:27:16.404Z,61.72
2019-02-26T03:29:45.060Z,61.96
2019-02-26T03:32:11.673Z,61.54
2019-02-26T03:34:38.283Z,61.60
2019-02-26T03:37:06.290Z,61.65
2019-02-26T03:39:33.503Z,61.19
2019-02-26T03:42:00.133Z,61.65
2019-02-26T03:44:29.539Z,61.75
2019-02-26T03:46:56.333Z,61.98
2019-02-26T03:49:26.381Z,61.96
2019-02-26T03:51:51.578Z,61.99
2019-02-26T03:54:18.257Z,61.92
2019-02-26T03:56:45.002Z,62.26
2019-02-26T03:59:11.926Z,61.96
2019-02-26T04:01:38.580Z,62.20
2019-02-26T04:04:07.591Z,62.16
2019-02-26T04:06:35.994Z,62.49
2019-02-26T04:09:02.333Z,62.54
2019-02-26T04:11:30.205Z,63.07
2019-02-26T04:13:56.878Z,63.01
2019-02-26T04:16:23.524Z,62.90
2019-02-26T04:18:51.988Z,62.83
2019-02-26T04:21:20.933Z,62.74
2019-02-26T04:23:47.280Z,62.97
2019-02-26T04:26:21.049Z,62.99
2019-02-26T04:28:52.493Z,63.18
2019-02-26T04:31:28.751Z,62.75
2019-02-26T04:34:01.818Z,63.26
2019-02-26T04:36:31.291Z,63.49
2019-02-26T04:39:19.101Z,63.31
2019-02-26T04:42:08.304Z,63.92
2019-02-26T04:44:55.158Z,63.75
2019-02-26T04:47:26.689Z,63.50
2019-02-26T04:49:54.445Z,63.67
2019-02-26T04:52:22.045Z,63.45
2019-02-26T04:54:48.711Z,63.61
2019-02-26T04:57:15.414Z,63.82
2019-02-26T04:59:43.902Z,63.84
2019-02-26T05:02:10.735Z,63.67
2019-02-26T05:04:39.452Z,63.81
2019-02-26T05:07:08.067Z,63.79
2019-02-26T05:09:35.394Z,63.59
2019-02-26T05:12:02.291Z,63.42
2019-02-26T05:14:29.017Z,63.61
2019-02-26T05:16:55.724Z,64.28
2019-02-26T05:19:24.294Z,64.22
2019-02-26T05:21:50.941Z,63.75
2019-02-26T05:24:18.930Z,63.85
2019-02-26T05:26:46.251Z,64.03
2019-02-26T05:29:12.950Z,63.96
2019-02-26T05:31:43.044Z,63.55
2019-02-26T05:34:09.170Z,63.98
2019-02-26T05:36:39.030Z,63.79
2019-02-26T05:39:05.574Z,64.07
2019-02-26T05:41:34.050Z,64.03
2019-02-26T05:44:01.832Z,63.92
2019-02-26T05:46:29.608Z,63.91
2019-02-26T05:48:56.369Z,64.00
2019-02-26T05:51:24.571Z,63.98
2019-02-26T05:53:51.620Z,63.98
2019-02-26T05:56:20.725Z,64.00
2019-02-26T05:58:47.160Z,64.04
2019-02-26T06:01:16.262Z,64.07
2019-02-26T06:03:44.273Z,63.97
2019-02-26T06:06:11.036Z,64.33
2019-02-26T06:08:39.282Z,64.77
2019-02-26T06:11:06.376Z,64.32
2019-02-26T06:13:35.501Z,64.72
2019-02-26T06:16:01.942Z,64.50
2019-02-26T06:18:30.208Z,64.47
2019-02-26T06:20:58.630Z,64.25
2019-02-26T06:23:28.048Z,64.17
2019-02-26T06:25:55.994Z,64.58
2019-02-26T06:28:22.699Z,64.27
2019-02-26T06:30:49.399Z,64.30
2019-02-26T06:33:16.471Z,64.00
2019-02-26T06:35:43.263Z,63.87
2019-02-26T06:38:11.671Z,63.71
2019-02-26T06:40:39.343Z,63.46
2019-02-26T06:43:07.059Z,62.26
2019-02-26T06:45:35.472Z,62.08
2019-02-26T06:48:02.278Z,63.35
2019-02-26T06:50:28.959Z,62.76
2019-02-26T06:52:55.623Z,61.96
2019-02-26T06:55:22.315Z,62.04
2019-02-26T06:57:50.862Z,61.99
2019-02-26T07:00:19.733Z,61.95
2019-02-26T07:02:46.397Z,61.41
2019-02-26T07:05:13.705Z,62.08
2019-02-26T07:07:40.396Z,62.53
2019-02-26T07:10:16.002Z,62.41
2019-02-26T07:12:42.646Z,62.51
2019-02-26T07:15:16.494Z,61.41
2019-02-26T07:17:46.085Z,60.74
2019-02-26T07:20:11.678Z,60.98
2019-02-26T07:22:39.840Z,60.40
2019-02-26T07:25:10.445Z,61.32
2019-02-26T07:27:38.426Z,60.95
2019-02-26T07:30:10.284Z,60.26
2019-02-26T07:32:38.346Z,59.69
2019-02-26T07:35:08.708Z,60.01
2019-02-26T07:37:38.094Z,60.09
2019-02-26T07:40:11.099Z,61.04
2019-02-26T07:42:39.102Z,60.60
2019-02-26T07:45:14.661Z,59.81
2019-02-26T07:47:37.379Z,60.29
2019-02-26T07:50:11.611Z,60.60
2019-02-26T07:52:38.234Z,59.59
2019-02-26T07:55:09.188Z,59.27
2019-02-26T07:57:34.843Z,59.47
2019-02-26T08:00:06.235Z,58.71
2019-02-26T08:02:34.924Z,58.69
2019-02-26T08:05:01.675Z,59.70
2019-02-26T08:07:28.534Z,60.15
2019-02-26T08:09:56.905Z,59.43
2019-02-26T08:12:23.568Z,59.43
2019-02-26T08:14:50.278Z,58.94
2019-02-26T08:17:16.965Z,58.31
2019-02-26T08:19:46.622Z,57.77
2019-02-26T08:22:12.264Z,57.76
2019-02-26T08:24:38.962Z,57.22
2019-02-26T08:27:06.544Z,56.32
2019-02-26T08:29:36.132Z,57.07
2019-02-26T08:32:02.768Z,56.78
2019-02-26T08:34:29.437Z,56.52
2019-02-26T08:36:56.124Z,57.12
2019-02-26T08:39:22.811Z,56.84
2019-02-26T08:42:01.385Z,56.69
2019-02-26T08:44:28.250Z,57.01
2019-02-26T08:46:54.956Z,55.61
2019-02-26T08:49:22.539Z,56.17
2019-02-26T08:51:49.431Z,56.22
2019-02-26T08:54:20.803Z,56.57
2019-02-26T08:56:44.611Z,54.83
2019-02-26T08:59:12.396Z,54.73
2019-02-26T09:01:39.099Z,55.08
2019-02-26T09:04:05.808Z,55.00
2019-02-26T09:06:32.528Z,54.33
2019-02-26T09:09:00.161Z,54.61
2019-02-26T09:11:31.815Z,54.53
2019-02-26T09:13:59.466Z,54.14
2019-02-26T09:16:28.312Z,54.35
2019-02-26T09:18:55.372Z,54.19
2019-02-26T09:21:22.880Z,53.51
2019-02-26T09:23:53.871Z,53.99
2019-02-26T09:26:18.183Z,54.00
2019-02-26T09:28:47.530Z,54.09
2019-02-26T09:31:14.227Z,53.50
2019-02-26T09:33:43.580Z,52.53
2019-02-26T09:36:12.632Z,51.91
2019-02-26T09:38:39.281Z,53.78
2019-02-26T09:41:06.706Z,51.63
2019-02-26T09:43:33.418Z,51.33
2019-02-26T09:46:00.011Z,50.14
2019-02-26T09:48:26.751Z,49.48
2019-02-26T09:50:53.478Z,49.32
2019-02-26T09:53:20.077Z,49.64
2019-02-26T09:55:46.803Z,48.09
2019-02-26T09:58:15.741Z,48.02
2019-02-26T10:00:43.013Z,48.45
2019-02-26T10:03:12.712Z,46.50
2019-02-26T10:05:39.321Z,45.14
2019-02-26T10:08:05.933Z,44.21
2019-02-26T10:10:33.773Z,43.97
2019-02-26T10:13:02.878Z,41.98
2019-02-26T10:15:29.821Z,42.82
2019-02-26T10:17:58.797Z,40.77
2019-02-26T10:20:28.574Z,41.19
2019-02-26T10:22:57.226Z,43.26
2019-02-26T10:25:23.346Z,38.17
2019-02-26T10:27:51.553Z,38.44
2019-02-26T10:30:19.336Z,38.72
2019-02-26T10:32:46.804Z,40.93
2019-02-26T10:35:22.566Z,38.72
2019-02-26T10:37:52.565Z,36.99
2019-02-26T10:40:19.563Z,36.83
2019-02-26T10:42:46.848Z,36.10
2019-02-26T10:45:18.314Z,36.28
2019-02-26T10:47:45.055Z,36.53
2019-02-26T10:50:16.300Z,37.02
2019-02-26T10:52:42.731Z,37.42
2019-02-26T10:55:12.804Z,37.05
2019-02-26T10:57:38.476Z,37.19
2019-02-26T11:00:22.648Z,36.92
2019-02-26T11:02:51.079Z,35.97
2019-02-26T11:05:20.802Z,35.16
2019-02-26T11:07:47.132Z,35.27
2019-02-26T11:10:14.600Z,34.87
2019-02-26T11:12:42.553Z,35.26
2019-02-26T11:15:12.132Z,35.74
2019-02-26T11:17:38.892Z,35.05
2019-02-26T11:20:08.489Z,34.18
2019-02-26T11:22:35.194Z,34.74
2019-02-26T11:25:02.079Z,33.88
2019-02-26T11:27:28.776Z,33.01
2019-02-26T11:29:57.800Z,33.82
2019-02-26T11:32:24.148Z,32.70
2019-02-26T11:34:52.705Z,34.05
2019-02-26T11:37:20.318Z,32.79
2019-02-26T11:39:48.251Z,33.18
2019-02-26T11:42:16.437Z,34.16
2019-02-26T11:44:43.499Z,33.35
2019-02-26T11:47:11.132Z,34.76
2019-02-26T11:49:39.446Z,33.55
2019-02-26T11:52:08.602Z,31.87
2019-02-26T11:54:37.306Z,32.27
2019-02-26T11:57:05.186Z,32.58
2019-02-26T11:59:33.793Z,33.22
2019-02-26T12:02:03.919Z,33.34
2019-02-26T12:04:30.135Z,33.17
2019-02-26T12:06:58.526Z,34.06
2019-02-26T12:09:25.585Z,34.01
2019-02-26T12:11:52.214Z,30.60
2019-02-26T12:14:21.559Z,30.55
2019-02-26T12:16:47.421Z,31.37
2019-02-26T12:19:14.045Z,31.89
2019-02-26T12:21:40.740Z,31.75
2019-02-26T12:24:09.123Z,31.30
2019-02-26T12:26:35.953Z,31.58
2019-02-26T12:29:04.427Z,32.19
2019-02-26T12:31:34.103Z,31.99
2019-02-26T12:34:00.951Z,31.18
2019-02-26T12:36:29.835Z,31.27
2019-02-26T12:38:57.439Z,32.42
2019-02-26T12:41:24.841Z,32.97
2019-02-26T12:43:51.532Z,33.52
2019-02-26T12:46:19.738Z,33.07
2019-02-26T12:48:47.777Z,33.09
2019-02-26T12:51:15.424Z,33.77
2019-02-26T12:53:49.138Z,33.08
2019-02-26T12:56:13.551Z,32.70
2019-02-26T12:58:41.004Z,33.00
2019-02-26T13:01:08.758Z,33.65
2019-02-26T13:03:38.854Z,31.98
2019-02-26T13:06:05.871Z,32.30
2019-02-26T13:08:32.597Z,33.49
2019-02-26T13:10:59.248Z,30.57
2019-02-26T13:13:26.985Z,30.14
2019-02-26T13:15:53.597Z,30.16
2019-02-26T13:18:20.274Z,30.10
2019-02-26T13:20:52.138Z,30.05
2019-02-26T13:23:20.705Z,30.22
2019-02-26T13:25:46.272Z,27.55
2019-02-26T13:28:12.987Z,29.63
2019-02-26T13:30:39.758Z,28.90
2019-02-26T13:33:11.098Z,28.44
2019-02-26T13:35:34.995Z,29.52
2019-02-26T13:38:02.556Z,29.55
2019-02-26T13:40:29.246Z,27.74
2019-02-26T13:45:25.724Z,27.39
2019-02-26T13:47:52.427Z,27.96
2019-02-26T13:50:24.664Z,27.73
2019-02-26T13:52:51.264Z,27.87
2019-02-26T13:55:17.998Z,24.79
2019-02-26T13:57:44.696Z,24.49
2019-02-26T14:00:12.917Z,25.85
2019-02-26T14:02:39.622Z,24.08
2019-02-26T14:05:08.727Z,24.69
2019-02-26T14:07:35.337Z,25.78
2019-02-26T14:10:03.412Z,27.41
2019-02-26T14:12:30.088Z,24.05
2019-02-26T14:14:56.718Z,24.79
2019-02-26T14:17:23.439Z,24.90
2019-02-26T14:19:50.108Z,25.23
2019-02-26T14:22:17.024Z,25.99
2019-02-26T14:24:43.648Z,25.59
2019-02-26T14:27:10.372Z,26.21
2019-02-26T14:29:36.968Z,24.57
2019-02-26T14:32:03.627Z,24.76
2019-02-26T14:34:30.322Z,25.01
2019-02-26T14:36:57.061Z,25.35
2019-02-26T14:39:23.710Z,25.28
2019-02-26T14:41:50.565Z,25.73
2019-02-26T14:44:17.174Z,25.27
2019-02-26T14:46:44.906Z,24.93
2019-02-26T14:49:11.616Z,25.40
2019-02-26T14:51:38.243Z,25.55
2019-02-26T14:54:06.477Z,26.02
2019-02-26T14:56:33.475Z,26.53
2019-02-26T14:59:00.152Z,27.54
2019-02-26T15:01:26.812Z,27.46
2019-02-26T15:03:53.818Z,26.52
2019-02-26T15:06:20.531Z,25.94
2019-02-26T15:08:47.229Z,26.71
2019-02-26T15:11:13.932Z,24.91
2019-02-26T15:13:40.631Z,24.95
2019-02-26T15:16:07.320Z,25.34
2019-02-26T15:18:35.753Z,25.32
2019-02-26T15:21:02.660Z,25.50
2019-02-26T15:23:29.355Z,26.55
2019-02-26T15:25:56.063Z,28.01
2019-02-26T15:28:22.677Z,26.42
2019-02-26T15:30:49.350Z,26.93
2019-02-26T15:33:16.038Z,28.61
2019-02-26T15:35:42.750Z,27.83
2019-02-26T15:38:09.489Z,27.81
2019-02-26T15:40:36.242Z,28.48
2019-02-26T15:43:02.966Z,29.02
2019-02-26T15:45:30.766Z,29.79
2019-02-26T15:47:57.388Z,28.84
2019-02-26T15:50:24.017Z,28.91
2019-02-26T15:52:53.043Z,29.16
2019-02-26T15:55:22.840Z,29.32
2019-02-26T15:57:49.902Z,30.73
2019-02-26T16:00:18.279Z,30.63
2019-02-26T16:02:45.671Z,32.17
2019-02-26T16:05:12.349Z,32.06
2019-02-26T16:07:39.036Z,30.84
2019-02-26T16:10:08.189Z,32.99
2019-02-26T16:12:35.015Z,33.12
2019-02-26T16:15:01.719Z,32.24
2019-02-26T16:17:28.399Z,31.70
2019-02-26T16:19:55.014Z,33.52
2019-02-26T16:22:21.677Z,33.76
2019-02-26T16:24:48.363Z,33.47
2019-02-26T16:27:15.208Z,34.73
2019-02-26T16:29:41.908Z,34.72
2019-02-26T16:32:08.505Z,35.58
2019-02-26T16:34:35.465Z,35.39
2019-02-26T16:37:03.330Z,35.22
2019-02-26T16:39:31.101Z,35.30
2019-02-26T16:41:58.112Z,35.23
2019-02-26T16:44:25.423Z,36.80
2019-02-26T16:46:52.353Z,37.33
2019-02-26T16:49:19.071Z,37.99
2019-02-26T16:51:45.739Z,37.25
2019-02-26T16:54:12.382Z,36.95
2019-02-26T16:56:39.403Z,37.27
2019-02-26T16:59:07.854Z,36.49
2019-02-26T17:01:34.969Z,37.91
2019-02-26T17:04:01.671Z,37.48
2019-02-26T17:06:28.399Z,38.27
2019-02-26T17:08:54.989Z,39.21
2019-02-26T17:11:21.673Z,39.81
2019-02-26T17:13:48.355Z,38.95
2019-02-26T17:16:15.058Z,39.52
2019-02-26T17:18:42.785Z,39.00
2019-02-26T17:21:10.190Z,39.81
2019-02-26T17:23:36.810Z,40.41
2019-02-26T17:26:04.652Z,40.56
2019-02-26T17:28:31.360Z,41.40
2019-02-26T17:30:58.336Z,41.21
2019-02-26T17:33:24.955Z,38.65
2019-02-26T17:35:52.947Z,37.83
2019-02-26T17:38:19.758Z,34.42
2019-02-26T17:40:46.370Z,34.33
2019-02-26T17:43:13.063Z,33.10
2019-02-26T17:45:39.676Z,30.88
2019-02-26T17:48:06.263Z,32.20
2019-02-26T17:50:38.050Z,33.46
2019-02-26T17:53:04.857Z,34.34
2019-02-26T17:55:31.472Z,30.51
2019-02-26T17:57:58.173Z,29.25
2019-02-26T18:00:26.493Z,28.97
2019-02-26T18:02:53.207Z,27.19
2019-02-26T18:05:19.936Z,27.99
2019-02-26T18:07:47.644Z,27.04
2019-02-26T18:10:22.168Z,26.05
2019-02-26T18:12:48.857Z,26.12
2019-02-26T18:15:17.471Z,25.46
2019-02-26T18:17:44.174Z,25.04
2019-02-26T18:20:16.586Z,25.16
2019-02-26T18:22:43.195Z,24.88
2019-02-26T18:25:11.847Z,24.52
2019-02-26T18:27:38.527Z,25.22
2019-02-26T18:30:15.124Z,23.87
2019-02-26T18:32:49.987Z,24.27
2019-02-26T18:35:10.431Z,24.22
2019-02-26T18:37:46.045Z,23.77
2019-02-26T18:40:11.141Z,31.02
2019-02-26T18:42:38.708Z,34.67
2019-02-26T18:45:09.527Z,35.35
2019-02-26T18:47:36.395Z,37.84
2019-02-26T18:50:04.285Z,38.79
2019-02-26T18:52:30.964Z,39.55
2019-02-26T18:54:57.583Z,40.11
2019-02-26T18:57:24.890Z,40.49
2019-02-26T18:59:53.702Z,40.75
2019-02-26T19:02:20.338Z,41.55
2019-02-26T19:04:48.759Z,41.58
2019-02-26T19:07:16.617Z,41.37
2019-02-26T19:09:45.105Z,42.77
2019-02-26T19:12:11.834Z,42.53
2019-02-26T19:14:42.019Z,43.03
2019-02-26T19:17:07.071Z,43.06
2019-02-26T19:19:33.736Z,43.67
2019-02-26T19:22:00.429Z,43.98
2019-02-26T19:24:27.124Z,44.30
2019-02-26T19:26:54.826Z,44.79
2019-02-26T19:29:21.413Z,45.01
2019-02-26T19:31:48.096Z,45.39
2019-02-26T19:34:14.774Z,45.27
2019-02-26T19:36:45.676Z,45.63
2019-02-26T19:39:12.124Z,46.06
2019-02-26T19:41:38.894Z,45.67
2019-02-26T19:44:05.504Z,46.16
2019-02-26T19:46:32.143Z,46.08
2019-02-26T19:48:58.824Z,46.23
2019-02-26T19:51:25.659Z,46.55
2019-02-26T19:53:52.395Z,46.60
2019-02-26T19:56:23.235Z,46.88
2019-02-26T19:58:47.707Z,47.05
2019-02-26T20:01:14.378Z,47.67
2019-02-26T20:03:42.123Z,48.16
2019-02-26T20:06:08.744Z,48.91
2019-02-26T20:08:35.479Z,49.51
2019-02-26T20:11:02.148Z,49.90
2019-02-26T20:13:28.798Z,50.00
2019-02-26T20:15:55.456Z,50.10
2019-02-26T20:18:25.816Z,50.13
2019-02-26T20:20:50.656Z,50.49
2019-02-26T20:23:17.343Z,50.66
2019-02-26T20:25:44.010Z,50.64
2019-02-26T20:28:10.673Z,50.57
2019-02-26T20:30:37.335Z,50.70
2019-02-26T20:33:04.866Z,50.75
2019-02-26T20:35:31.707Z,50.71
2019-02-26T20:37:58.828Z,50.43
2019-02-26T20:40:26.026Z,50.55
2019-02-26T20:42:52.651Z,50.62
2019-02-26T20:45:22.448Z,49.60
2019-02-26T20:47:49.068Z,50.23
2019-02-26T20:50:19.973Z,49.02
2019-02-26T20:52:44.258Z,49.84
2019-02-26T20:55:16.698Z,49.87
2019-02-26T20:57:42.934Z,49.57
2019-02-26T21:00:13.259Z,49.82
2019-02-26T21:02:41.621Z,49.11
2019-02-26T21:05:09.471Z,49.53
2019-02-26T21:07:36.259Z,49.82
2019-02-26T21:10:05.427Z,49.73
2019-02-26T21:12:32.099Z,49.54
2019-02-26T21:14:58.722Z,49.58
2019-02-26T21:17:25.824Z,48.93
2019-02-26T21:19:53.040Z,49.52
2019-02-26T21:22:21.816Z,49.05
2019-02-26T21:24:48.271Z,49.25
2019-02-26T21:27:14.947Z,49.32
2019-02-26T21:29:41.688Z,49.53
2019-02-26T21:32:08.382Z,49.71
2019-02-26T21:34:35.018Z,50.12
2019-02-26T21:37:01.762Z,50.64
2019-02-26T21:39:28.351Z,50.15
2019-02-26T21:41:56.385Z,50.78
2019-02-26T21:44:23.379Z,50.10
2019-02-26T21:46:50.020Z,50.63
2019-02-26T21:49:16.667Z,50.78
2019-02-26T21:51:43.463Z,50.77
2019-02-26T21:54:10.054Z,50.51
2019-02-26T21:56:36.752Z,50.71
2019-02-26T21:59:03.453Z,50.53
2019-02-26T22:01:30.147Z,51.67
2019-02-26T22:03:58.578Z,51.75
2019-02-26T22:06:25.508Z,51.51
2019-02-26T22:08:52.132Z,51.64
2019-02-26T22:11:19.166Z,51.99
2019-02-26T22:13:45.986Z,51.98
2019-02-26T22:16:14.940Z,52.24
2019-02-26T22:18:41.472Z,52.72
2019-02-26T22:21:08.182Z,52.57
2019-02-26T22:23:34.914Z,53.29
2019-02-26T22:26:01.680Z,53.19
2019-02-26T22:28:28.370Z,53.37
2019-02-26T22:30:55.903Z,52.92
2019-02-26T22:33:23.266Z,53.53
2019-02-26T22:35:49.967Z,52.72
2019-02-26T22:38:16.559Z,53.00
2019-02-26T22:40:43.244Z,53.66
2019-02-26T22:43:13.623Z,53.93
2019-02-26T22:45:38.471Z,53.76
2019-02-26T22:48:05.965Z,53.82
2019-02-26T22:50:32.687Z,53.69
2019-02-26T22:53:03.751Z,53.97
2019-02-26T22:55:28.137Z,54.18
2019-02-26T22:57:54.834Z,53.77
2019-02-26T23:00:50.604Z,53.90
2019-02-26T23:03:19.311Z,53.74
2019-02-26T23:05:46.010Z,54.39
2019-02-26T23:08:12.708Z,54.66
2019-02-26T23:10:39.497Z,54.31
2019-02-26T23:13:06.246Z,55.18
2019-02-26T23:15:34.035Z,55.47
2019-02-26T23:18:00.765Z,55.80
2019-02-26T23:20:27.469Z,55.43
2019-02-26T23:22:54.319Z,55.26
2019-02-26T23:25:21.135Z,56.15
2019-02-26T23:27:48.698Z,55.97
2019-02-26T23:30:16.407Z,55.70
2019-02-26T23:32:43.088Z,55.48
2019-02-26T23:35:12.017Z,55.39
2019-02-26T23:37:38.744Z,55.37
2019-02-26T23:40:08.172Z,55.46
2019-02-26T23:42:38.593Z,55.42
2019-02-26T23:45:06.882Z,55.46
2019-02-26T23:47:35.133Z,55.15
2019-02-26T23:50:02.029Z,55.26
2019-02-26T23:52:28.721Z,55.51
2019-02-26T23:54:55.357Z,55.97
2019-02-26T23:57:22.780Z,55.87
2019-02-26T23:59:50.607Z,56.84
